sensor_id;sensor_type;location;lat;lon;timestamp;temperature;humidity
37702;DHT22;23548;51.196;6.838;2023-12-07T00:01:49;0.30;99.90
37702;DHT22;23548;51.196;6.838;2023-12-07T00:04:15;0.30;99.90
37702;DHT22;23548;51.196;6.838;2023-12-07T00:06:41;0.20;99.90
37702;DHT22;23548;51.196;6.838;2023-12-07T00:09:06;0.10;99.90
37702;DHT22;23548;51.196;6.838;2023-12-07T00:11:32;0.10;99.90
37702;DHT22;23548;51.196;6.838;2023-12-07T00:13:58;0.10;99.90
37702;DHT22;23548;51.196;6.838;2023-12-07T00:16:23;0.10;99.90
37702;DHT22;23548;51.196;6.838;2023-12-07T00:18:49;0.10;99.90
37702;DHT22;23548;51.196;6.838;2023-12-07T00:21:15;0.10;99.90
37702;DHT22;23548;51.196;6.838;2023-12-07T00:23:40;0.10;99.90
37702;DHT22;23548;51.196;6.838;2023-12-07T00:26:06;0.10;99.90
37702;DHT22;23548;51.196;6.838;2023-12-07T00:28:32;0.10;99.90
37702;DHT22;23548;51.196;6.838;2023-12-07T00:30:58;0.00;99.90
37702;DHT22;23548;51.196;6.838;2023-12-07T00:33:24;0.00;99.90
37702;DHT22;23548;51.196;6.838;2023-12-07T00:35:50;0.10;99.90
37702;DHT22;23548;51.196;6.838;2023-12-07T00:38:15;0.10;99.90
37702;DHT22;23548;51.196;6.838;2023-12-07T00:40:41;0.00;99.90
37702;DHT22;23548;51.196;6.838;2023-12-07T00:43:07;0.00;99.90
37702;DHT22;23548;51.196;6.838;2023-12-07T00:45:33;-0.10;99.90
37702;DHT22;23548;51.196;6.838;2023-12-07T00:47:58;-0.10;99.90
37702;DHT22;23548;51.196;6.838;2023-12-07T00:50:24;-0.10;99.90
37702;DHT22;23548;51.196;6.838;2023-12-07T00:52:50;0.00;99.90
37702;DHT22;23548;51.196;6.838;2023-12-07T00:55:16;0.10;99.90
37702;DHT22;23548;51.196;6.838;2023-12-07T00:57:41;0.00;99.90
37702;DHT22;23548;51.196;6.838;2023-12-07T01:00:08;0.10;99.90
37702;DHT22;23548;51.196;6.838;2023-12-07T01:02:34;0.20;99.90
37702;DHT22;23548;51.196;6.838;2023-12-07T01:05:00;0.20;99.90
37702;DHT22;23548;51.196;6.838;2023-12-07T01:07:26;0.20;99.90
37702;DHT22;23548;51.196;6.838;2023-12-07T01:09:51;0.20;99.90
37702;DHT22;23548;51.196;6.838;2023-12-07T01:12:17;0.20;99.90
37702;DHT22;23548;51.196;6.838;2023-12-07T01:14:43;0.10;99.90
37702;DHT22;23548;51.196;6.838;2023-12-07T01:17:09;0.00;99.90
37702;DHT22;23548;51.196;6.838;2023-12-07T01:19:35;0.00;99.90
37702;DHT22;23548;51.196;6.838;2023-12-07T01:22:01;-0.10;99.90
37702;DHT22;23548;51.196;6.838;2023-12-07T01:24:26;-0.10;99.90
37702;DHT22;23548;51.196;6.838;2023-12-07T01:26:52;-0.10;99.90
37702;DHT22;23548;51.196;6.838;2023-12-07T01:29:18;-0.20;99.90
37702;DHT22;23548;51.196;6.838;2023-12-07T01:31:44;-0.20;99.90
37702;DHT22;23548;51.196;6.838;2023-12-07T01:34:10;-0.20;99.90
37702;DHT22;23548;51.196;6.838;2023-12-07T01:36:35;-0.30;99.90
37702;DHT22;23548;51.196;6.838;2023-12-07T01:39:01;-0.30;99.90
37702;DHT22;23548;51.196;6.838;2023-12-07T01:41:27;-0.30;99.90
37702;DHT22;23548;51.196;6.838;2023-12-07T01:43:53;-0.20;99.90
37702;DHT22;23548;51.196;6.838;2023-12-07T01:46:18;-0.20;99.90
37702;DHT22;23548;51.196;6.838;2023-12-07T01:48:45;-0.30;99.90
37702;DHT22;23548;51.196;6.838;2023-12-07T01:51:15;-0.20;99.90
37702;DHT22;23548;51.196;6.838;2023-12-07T01:53:42;-0.10;99.90
37702;DHT22;23548;51.196;6.838;2023-12-07T01:56:08;0.00;99.90
37702;DHT22;23548;51.196;6.838;2023-12-07T01:58:35;0.20;99.90
37702;DHT22;23548;51.196;6.838;2023-12-07T02:01:01;0.30;99.90
37702;DHT22;23548;51.196;6.838;2023-12-07T02:03:27;0.40;99.90
37702;DHT22;23548;51.196;6.838;2023-12-07T02:05:55;0.50;99.90
37702;DHT22;23548;51.196;6.838;2023-12-07T02:08:22;0.70;99.90
37702;DHT22;23548;51.196;6.838;2023-12-07T02:10:48;0.70;99.90
37702;DHT22;23548;51.196;6.838;2023-12-07T02:13:14;0.70;99.90
37702;DHT22;23548;51.196;6.838;2023-12-07T02:15:39;0.80;99.90
37702;DHT22;23548;51.196;6.838;2023-12-07T02:18:21;0.80;99.90
37702;DHT22;23548;51.196;6.838;2023-12-07T02:23:32;0.90;99.90
37702;DHT22;23548;51.196;6.838;2023-12-07T02:26:29;1.00;99.90
37702;DHT22;23548;51.196;6.838;2023-12-07T02:28:55;1.10;99.90
37702;DHT22;23548;51.196;6.838;2023-12-07T02:31:21;1.20;99.90
37702;DHT22;23548;51.196;6.838;2023-12-07T02:33:46;1.30;99.90
37702;DHT22;23548;51.196;6.838;2023-12-07T02:36:13;1.30;99.90
37702;DHT22;23548;51.196;6.838;2023-12-07T02:38:41;1.30;99.90
37702;DHT22;23548;51.196;6.838;2023-12-07T02:41:07;1.30;99.90
37702;DHT22;23548;51.196;6.838;2023-12-07T02:43:34;1.30;99.90
37702;DHT22;23548;51.196;6.838;2023-12-07T02:46:09;1.40;99.90
37702;DHT22;23548;51.196;6.838;2023-12-07T02:48:35;1.50;99.90
37702;DHT22;23548;51.196;6.838;2023-12-07T02:51:00;1.60;99.90
37702;DHT22;23548;51.196;6.838;2023-12-07T02:53:26;1.60;99.90
37702;DHT22;23548;51.196;6.838;2023-12-07T02:55:52;1.40;99.90
37702;DHT22;23548;51.196;6.838;2023-12-07T02:58:17;1.40;99.90
37702;DHT22;23548;51.196;6.838;2023-12-07T03:00:43;1.60;99.90
37702;DHT22;23548;51.196;6.838;2023-12-07T03:03:09;1.70;99.90
37702;DHT22;23548;51.196;6.838;2023-12-07T03:05:35;1.70;99.90
37702;DHT22;23548;51.196;6.838;2023-12-07T03:08:00;1.70;99.90
37702;DHT22;23548;51.196;6.838;2023-12-07T03:10:26;1.80;99.90
37702;DHT22;23548;51.196;6.838;2023-12-07T03:12:52;1.90;99.90
37702;DHT22;23548;51.196;6.838;2023-12-07T03:15:17;2.00;99.90
37702;DHT22;23548;51.196;6.838;2023-12-07T03:17:43;2.00;99.90
37702;DHT22;23548;51.196;6.838;2023-12-07T03:20:09;2.00;99.90
37702;DHT22;23548;51.196;6.838;2023-12-07T03:22:36;1.80;99.90
37702;DHT22;23548;51.196;6.838;2023-12-07T03:25:01;1.90;99.90
37702;DHT22;23548;51.196;6.838;2023-12-07T03:27:27;2.00;99.90
37702;DHT22;23548;51.196;6.838;2023-12-07T03:29:54;2.10;99.90
37702;DHT22;23548;51.196;6.838;2023-12-07T03:32:20;2.20;99.90
37702;DHT22;23548;51.196;6.838;2023-12-07T03:34:45;2.10;99.90
37702;DHT22;23548;51.196;6.838;2023-12-07T03:37:11;2.20;99.90
37702;DHT22;23548;51.196;6.838;2023-12-07T03:39:37;2.20;99.90
37702;DHT22;23548;51.196;6.838;2023-12-07T03:42:02;2.20;99.90
37702;DHT22;23548;51.196;6.838;2023-12-07T03:44:29;2.20;99.90
37702;DHT22;23548;51.196;6.838;2023-12-07T03:46:55;2.30;99.90
37702;DHT22;23548;51.196;6.838;2023-12-07T03:49:21;2.30;99.90
37702;DHT22;23548;51.196;6.838;2023-12-07T03:51:46;2.40;99.90
37702;DHT22;23548;51.196;6.838;2023-12-07T03:54:12;2.40;99.90
37702;DHT22;23548;51.196;6.838;2023-12-07T03:56:38;2.40;99.90
37702;DHT22;23548;51.196;6.838;2023-12-07T03:59:06;2.50;99.90
37702;DHT22;23548;51.196;6.838;2023-12-07T04:01:32;2.50;99.90
37702;DHT22;23548;51.196;6.838;2023-12-07T04:03:58;2.50;99.90
37702;DHT22;23548;51.196;6.838;2023-12-07T04:06:25;2.50;99.90
37702;DHT22;23548;51.196;6.838;2023-12-07T04:08:51;2.50;99.90
37702;DHT22;23548;51.196;6.838;2023-12-07T04:11:17;2.60;99.90
37702;DHT22;23548;51.196;6.838;2023-12-07T04:13:43;2.70;99.90
37702;DHT22;23548;51.196;6.838;2023-12-07T04:16:09;2.70;99.90
37702;DHT22;23548;51.196;6.838;2023-12-07T04:18:35;2.70;99.90
37702;DHT22;23548;51.196;6.838;2023-12-07T04:21:01;2.30;99.90
37702;DHT22;23548;51.196;6.838;2023-12-07T04:23:27;2.30;99.90
37702;DHT22;23548;51.196;6.838;2023-12-07T04:25:52;2.40;99.90
37702;DHT22;23548;51.196;6.838;2023-12-07T04:28:18;2.50;99.90
37702;DHT22;23548;51.196;6.838;2023-12-07T04:30:44;2.50;99.90
37702;DHT22;23548;51.196;6.838;2023-12-07T04:33:10;2.50;99.90
37702;DHT22;23548;51.196;6.838;2023-12-07T04:35:36;2.60;99.90
37702;DHT22;23548;51.196;6.838;2023-12-07T04:38:02;2.70;99.90
37702;DHT22;23548;51.196;6.838;2023-12-07T04:40:28;2.70;99.90
37702;DHT22;23548;51.196;6.838;2023-12-07T04:42:53;2.80;99.90
37702;DHT22;23548;51.196;6.838;2023-12-07T04:45:19;2.90;99.90
37702;DHT22;23548;51.196;6.838;2023-12-07T04:47:45;2.90;99.90
37702;DHT22;23548;51.196;6.838;2023-12-07T04:50:11;3.00;99.90
37702;DHT22;23548;51.196;6.838;2023-12-07T04:52:37;3.10;99.90
37702;DHT22;23548;51.196;6.838;2023-12-07T04:55:03;3.10;99.90
37702;DHT22;23548;51.196;6.838;2023-12-07T04:57:30;3.10;99.90
37702;DHT22;23548;51.196;6.838;2023-12-07T04:59:55;3.10;99.90
37702;DHT22;23548;51.196;6.838;2023-12-07T05:02:21;3.10;99.90
37702;DHT22;23548;51.196;6.838;2023-12-07T05:04:47;3.20;99.90
37702;DHT22;23548;51.196;6.838;2023-12-07T05:07:13;3.20;99.90
37702;DHT22;23548;51.196;6.838;2023-12-07T05:09:39;3.20;99.90
37702;DHT22;23548;51.196;6.838;2023-12-07T05:12:06;3.20;99.90
37702;DHT22;23548;51.196;6.838;2023-12-07T05:14:32;3.30;99.90
37702;DHT22;23548;51.196;6.838;2023-12-07T05:16:58;3.30;99.90
37702;DHT22;23548;51.196;6.838;2023-12-07T05:19:24;3.30;99.90
37702;DHT22;23548;51.196;6.838;2023-12-07T05:21:53;3.40;99.90
37702;DHT22;23548;51.196;6.838;2023-12-07T05:24:19;3.30;99.90
37702;DHT22;23548;51.196;6.838;2023-12-07T05:26:45;3.30;99.90
37702;DHT22;23548;51.196;6.838;2023-12-07T05:29:12;3.30;99.90
37702;DHT22;23548;51.196;6.838;2023-12-07T05:31:38;3.30;99.90
37702;DHT22;23548;51.196;6.838;2023-12-07T05:34:04;3.20;99.90
37702;DHT22;23548;51.196;6.838;2023-12-07T05:36:31;3.20;99.90
37702;DHT22;23548;51.196;6.838;2023-12-07T05:38:57;3.20;99.90
37702;DHT22;23548;51.196;6.838;2023-12-07T05:41:23;3.30;99.90
37702;DHT22;23548;51.196;6.838;2023-12-07T05:43:48;3.40;99.90
37702;DHT22;23548;51.196;6.838;2023-12-07T05:46:14;3.30;99.90
37702;DHT22;23548;51.196;6.838;2023-12-07T05:48:41;3.20;99.90
37702;DHT22;23548;51.196;6.838;2023-12-07T05:51:17;3.20;99.90
37702;DHT22;23548;51.196;6.838;2023-12-07T05:53:43;3.20;99.90
37702;DHT22;23548;51.196;6.838;2023-12-07T05:56:09;3.20;99.90
37702;DHT22;23548;51.196;6.838;2023-12-07T05:58:35;3.20;99.90
37702;DHT22;23548;51.196;6.838;2023-12-07T06:01:01;3.20;99.90
37702;DHT22;23548;51.196;6.838;2023-12-07T06:03:28;3.10;99.90
37702;DHT22;23548;51.196;6.838;2023-12-07T06:05:54;3.10;99.90
37702;DHT22;23548;51.196;6.838;2023-12-07T06:08:21;3.10;99.90
37702;DHT22;23548;51.196;6.838;2023-12-07T06:10:47;3.00;99.90
37702;DHT22;23548;51.196;6.838;2023-12-07T06:13:13;3.00;99.90
37702;DHT22;23548;51.196;6.838;2023-12-07T06:15:39;3.00;99.90
37702;DHT22;23548;51.196;6.838;2023-12-07T06:18:05;3.00;99.90
37702;DHT22;23548;51.196;6.838;2023-12-07T06:20:31;3.00;99.90
37702;DHT22;23548;51.196;6.838;2023-12-07T06:22:57;2.90;99.90
37702;DHT22;23548;51.196;6.838;2023-12-07T06:25:24;2.90;99.90
37702;DHT22;23548;51.196;6.838;2023-12-07T06:27:49;2.80;99.90
37702;DHT22;23548;51.196;6.838;2023-12-07T06:30:16;2.70;99.90
37702;DHT22;23548;51.196;6.838;2023-12-07T06:32:42;2.70;99.90
37702;DHT22;23548;51.196;6.838;2023-12-07T06:35:08;2.70;99.90
37702;DHT22;23548;51.196;6.838;2023-12-07T06:37:34;2.70;99.90
37702;DHT22;23548;51.196;6.838;2023-12-07T06:39:59;2.70;99.90
37702;DHT22;23548;51.196;6.838;2023-12-07T06:42:26;2.70;99.90
37702;DHT22;23548;51.196;6.838;2023-12-07T06:44:52;2.70;99.90
37702;DHT22;23548;51.196;6.838;2023-12-07T06:47:18;2.70;99.90
37702;DHT22;23548;51.196;6.838;2023-12-07T06:49:44;2.70;99.90
37702;DHT22;23548;51.196;6.838;2023-12-07T06:52:12;2.70;99.90
37702;DHT22;23548;51.196;6.838;2023-12-07T06:54:38;2.60;99.90
37702;DHT22;23548;51.196;6.838;2023-12-07T06:57:04;2.60;99.90
37702;DHT22;23548;51.196;6.838;2023-12-07T06:59:32;2.60;99.90
37702;DHT22;23548;51.196;6.838;2023-12-07T07:01:58;2.50;99.90
37702;DHT22;23548;51.196;6.838;2023-12-07T07:04:24;2.50;99.90
37702;DHT22;23548;51.196;6.838;2023-12-07T07:06:50;2.50;99.90
37702;DHT22;23548;51.196;6.838;2023-12-07T07:09:17;2.40;99.90
37702;DHT22;23548;51.196;6.838;2023-12-07T07:11:49;2.40;99.90
37702;DHT22;23548;51.196;6.838;2023-12-07T07:14:15;2.30;99.90
37702;DHT22;23548;51.196;6.838;2023-12-07T07:16:41;2.30;99.90
37702;DHT22;23548;51.196;6.838;2023-12-07T07:19:08;2.20;99.90
37702;DHT22;23548;51.196;6.838;2023-12-07T07:21:33;2.20;99.90
37702;DHT22;23548;51.196;6.838;2023-12-07T07:23:59;2.10;99.90
37702;DHT22;23548;51.196;6.838;2023-12-07T07:26:25;2.00;99.90
37702;DHT22;23548;51.196;6.838;2023-12-07T07:28:52;1.90;99.90
37702;DHT22;23548;51.196;6.838;2023-12-07T07:31:18;1.90;99.90
37702;DHT22;23548;51.196;6.838;2023-12-07T07:33:44;2.00;99.90
37702;DHT22;23548;51.196;6.838;2023-12-07T07:36:10;2.10;99.90
37702;DHT22;23548;51.196;6.838;2023-12-07T07:38:37;2.20;99.90
37702;DHT22;23548;51.196;6.838;2023-12-07T07:41:03;2.10;99.90
37702;DHT22;23548;51.196;6.838;2023-12-07T07:43:29;2.00;99.90
37702;DHT22;23548;51.196;6.838;2023-12-07T07:45:55;2.00;99.90
37702;DHT22;23548;51.196;6.838;2023-12-07T07:48:21;1.90;99.90
37702;DHT22;23548;51.196;6.838;2023-12-07T07:50:47;1.90;99.90
37702;DHT22;23548;51.196;6.838;2023-12-07T07:53:13;2.00;99.90
37702;DHT22;23548;51.196;6.838;2023-12-07T07:55:38;1.90;99.90
37702;DHT22;23548;51.196;6.838;2023-12-07T07:58:04;1.90;99.90
37702;DHT22;23548;51.196;6.838;2023-12-07T08:00:30;2.00;99.90
37702;DHT22;23548;51.196;6.838;2023-12-07T08:02:58;2.00;99.90
37702;DHT22;23548;51.196;6.838;2023-12-07T08:05:23;1.90;99.90
37702;DHT22;23548;51.196;6.838;2023-12-07T08:07:50;1.90;99.90
37702;DHT22;23548;51.196;6.838;2023-12-07T08:10:15;1.90;99.90
37702;DHT22;23548;51.196;6.838;2023-12-07T08:12:41;1.90;99.90
37702;DHT22;23548;51.196;6.838;2023-12-07T08:15:11;1.90;99.90
37702;DHT22;23548;51.196;6.838;2023-12-07T08:17:39;1.90;99.90
37702;DHT22;23548;51.196;6.838;2023-12-07T08:20:07;1.90;99.90
37702;DHT22;23548;51.196;6.838;2023-12-07T08:22:32;1.90;99.90
37702;DHT22;23548;51.196;6.838;2023-12-07T08:24:58;1.90;99.90
37702;DHT22;23548;51.196;6.838;2023-12-07T08:27:25;1.90;99.90
37702;DHT22;23548;51.196;6.838;2023-12-07T08:29:51;1.90;99.90
37702;DHT22;23548;51.196;6.838;2023-12-07T08:32:17;2.00;99.90
37702;DHT22;23548;51.196;6.838;2023-12-07T08:34:44;2.10;99.90
37702;DHT22;23548;51.196;6.838;2023-12-07T08:37:10;2.10;99.90
37702;DHT22;23548;51.196;6.838;2023-12-07T08:39:36;2.10;99.90
37702;DHT22;23548;51.196;6.838;2023-12-07T08:42:02;2.10;99.90
37702;DHT22;23548;51.196;6.838;2023-12-07T08:44:28;2.10;99.90
37702;DHT22;23548;51.196;6.838;2023-12-07T08:46:53;2.20;99.90
37702;DHT22;23548;51.196;6.838;2023-12-07T08:49:19;2.10;99.90
37702;DHT22;23548;51.196;6.838;2023-12-07T08:51:45;2.20;99.90
37702;DHT22;23548;51.196;6.838;2023-12-07T08:54:11;2.20;99.90
37702;DHT22;23548;51.196;6.838;2023-12-07T08:56:37;2.20;99.90
37702;DHT22;23548;51.196;6.838;2023-12-07T08:59:03;2.30;99.90
37702;DHT22;23548;51.196;6.838;2023-12-07T09:01:28;2.40;99.90
37702;DHT22;23548;51.196;6.838;2023-12-07T09:03:55;2.40;99.90
37702;DHT22;23548;51.196;6.838;2023-12-07T09:06:21;2.50;99.90
37702;DHT22;23548;51.196;6.838;2023-12-07T09:08:47;2.50;99.90
37702;DHT22;23548;51.196;6.838;2023-12-07T09:11:13;2.50;99.90
37702;DHT22;23548;51.196;6.838;2023-12-07T09:13:39;2.60;99.90
37702;DHT22;23548;51.196;6.838;2023-12-07T09:16:04;2.70;99.90
37702;DHT22;23548;51.196;6.838;2023-12-07T09:18:31;2.80;99.90
37702;DHT22;23548;51.196;6.838;2023-12-07T09:20:56;2.80;99.90
37702;DHT22;23548;51.196;6.838;2023-12-07T09:23:22;2.80;99.90
37702;DHT22;23548;51.196;6.838;2023-12-07T09:25:48;2.80;99.90
37702;DHT22;23548;51.196;6.838;2023-12-07T09:28:14;2.90;99.90
37702;DHT22;23548;51.196;6.838;2023-12-07T09:30:39;2.80;99.90
37702;DHT22;23548;51.196;6.838;2023-12-07T09:33:05;2.80;99.90
37702;DHT22;23548;51.196;6.838;2023-12-07T09:35:31;2.70;99.90
37702;DHT22;23548;51.196;6.838;2023-12-07T09:37:57;2.80;99.90
37702;DHT22;23548;51.196;6.838;2023-12-07T09:40:23;2.80;99.90
37702;DHT22;23548;51.196;6.838;2023-12-07T09:42:50;2.80;99.90
37702;DHT22;23548;51.196;6.838;2023-12-07T09:45:17;2.90;99.90
37702;DHT22;23548;51.196;6.838;2023-12-07T09:47:49;3.00;99.90
37702;DHT22;23548;51.196;6.838;2023-12-07T09:50:19;3.10;99.90
37702;DHT22;23548;51.196;6.838;2023-12-07T09:52:48;3.10;99.90
37702;DHT22;23548;51.196;6.838;2023-12-07T09:55:16;3.10;99.90
37702;DHT22;23548;51.196;6.838;2023-12-07T09:57:43;3.20;99.90
37702;DHT22;23548;51.196;6.838;2023-12-07T10:00:10;3.20;99.90
37702;DHT22;23548;51.196;6.838;2023-12-07T10:02:40;3.40;99.90
37702;DHT22;23548;51.196;6.838;2023-12-07T10:05:11;3.30;99.90
37702;DHT22;23548;51.196;6.838;2023-12-07T10:07:46;3.40;99.90
37702;DHT22;23548;51.196;6.838;2023-12-07T10:10:17;3.40;99.90
37702;DHT22;23548;51.196;6.838;2023-12-07T10:12:51;3.50;99.90
37702;DHT22;23548;51.196;6.838;2023-12-07T10:15:18;3.60;99.90
37702;DHT22;23548;51.196;6.838;2023-12-07T10:18:11;3.70;99.90
37702;DHT22;23548;51.196;6.838;2023-12-07T10:20:37;3.70;99.90
37702;DHT22;23548;51.196;6.838;2023-12-07T10:23:11;3.60;99.90
37702;DHT22;23548;51.196;6.838;2023-12-07T10:25:41;3.80;99.90
37702;DHT22;23548;51.196;6.838;2023-12-07T10:28:08;3.70;99.90
37702;DHT22;23548;51.196;6.838;2023-12-07T10:30:37;3.80;99.90
37702;DHT22;23548;51.196;6.838;2023-12-07T10:33:05;3.90;99.90
37702;DHT22;23548;51.196;6.838;2023-12-07T10:35:32;4.00;99.90
37702;DHT22;23548;51.196;6.838;2023-12-07T10:37:58;4.20;99.90
37702;DHT22;23548;51.196;6.838;2023-12-07T10:40:24;4.20;99.90
37702;DHT22;23548;51.196;6.838;2023-12-07T10:42:55;4.20;99.90
37702;DHT22;23548;51.196;6.838;2023-12-07T10:45:24;4.40;99.90
37702;DHT22;23548;51.196;6.838;2023-12-07T10:47:51;4.40;99.90
37702;DHT22;23548;51.196;6.838;2023-12-07T10:50:23;4.40;99.90
37702;DHT22;23548;51.196;6.838;2023-12-07T10:52:52;4.50;99.90
37702;DHT22;23548;51.196;6.838;2023-12-07T10:55:22;4.40;99.90
37702;DHT22;23548;51.196;6.838;2023-12-07T10:57:52;4.50;99.90
37702;DHT22;23548;51.196;6.838;2023-12-07T11:00:19;4.50;99.90
37702;DHT22;23548;51.196;6.838;2023-12-07T11:02:50;4.30;99.90
37702;DHT22;23548;51.196;6.838;2023-12-07T11:05:17;4.40;99.90
37702;DHT22;23548;51.196;6.838;2023-12-07T11:07:48;4.40;99.90
37702;DHT22;23548;51.196;6.838;2023-12-07T11:10:24;4.50;99.90
37702;DHT22;23548;51.196;6.838;2023-12-07T11:13:05;4.30;99.90
37702;DHT22;23548;51.196;6.838;2023-12-07T11:15:35;4.30;99.90
37702;DHT22;23548;51.196;6.838;2023-12-07T11:18:02;3.90;99.90
37702;DHT22;23548;51.196;6.838;2023-12-07T11:20:41;4.10;99.90
37702;DHT22;23548;51.196;6.838;2023-12-07T11:23:11;4.50;99.90
37702;DHT22;23548;51.196;6.838;2023-12-07T11:25:37;4.60;99.90
37702;DHT22;23548;51.196;6.838;2023-12-07T11:28:04;4.40;99.90
37702;DHT22;23548;51.196;6.838;2023-12-07T11:30:32;4.20;99.90
37702;DHT22;23548;51.196;6.838;2023-12-07T11:32:58;4.00;99.90
37702;DHT22;23548;51.196;6.838;2023-12-07T11:35:24;4.10;99.90
37702;DHT22;23548;51.196;6.838;2023-12-07T11:38:16;4.20;99.90
37702;DHT22;23548;51.196;6.838;2023-12-07T11:40:44;4.40;99.90
37702;DHT22;23548;51.196;6.838;2023-12-07T11:45:58;4.30;99.90
37702;DHT22;23548;51.196;6.838;2023-12-07T11:48:24;4.40;99.90
37702;DHT22;23548;51.196;6.838;2023-12-07T11:51:00;4.30;99.90
37702;DHT22;23548;51.196;6.838;2023-12-07T11:53:33;4.40;99.90
37702;DHT22;23548;51.196;6.838;2023-12-07T11:56:01;4.50;99.90
37702;DHT22;23548;51.196;6.838;2023-12-07T11:58:28;4.50;99.90
37702;DHT22;23548;51.196;6.838;2023-12-07T12:00:54;4.60;99.90
37702;DHT22;23548;51.196;6.838;2023-12-07T12:03:22;4.50;99.90
37702;DHT22;23548;51.196;6.838;2023-12-07T12:05:49;4.70;99.90
37702;DHT22;23548;51.196;6.838;2023-12-07T12:08:16;4.60;99.90
37702;DHT22;23548;51.196;6.838;2023-12-07T12:10:42;4.50;99.90
37702;DHT22;23548;51.196;6.838;2023-12-07T12:13:09;4.60;99.90
37702;DHT22;23548;51.196;6.838;2023-12-07T12:15:35;4.50;99.90
37702;DHT22;23548;51.196;6.838;2023-12-07T12:18:01;4.50;99.90
37702;DHT22;23548;51.196;6.838;2023-12-07T12:20:28;4.50;99.90
37702;DHT22;23548;51.196;6.838;2023-12-07T12:22:54;4.50;99.90
37702;DHT22;23548;51.196;6.838;2023-12-07T12:25:25;4.30;99.90
37702;DHT22;23548;51.196;6.838;2023-12-07T12:28:14;4.30;99.90
37702;DHT22;23548;51.196;6.838;2023-12-07T12:30:40;4.30;99.90
37702;DHT22;23548;51.196;6.838;2023-12-07T12:33:07;4.40;99.90
37702;DHT22;23548;51.196;6.838;2023-12-07T12:35:33;4.50;99.90
37702;DHT22;23548;51.196;6.838;2023-12-07T12:37:59;4.60;99.90
37702;DHT22;23548;51.196;6.838;2023-12-07T12:40:27;4.60;99.90
37702;DHT22;23548;51.196;6.838;2023-12-07T12:42:57;4.70;99.90
37702;DHT22;23548;51.196;6.838;2023-12-07T12:45:24;4.90;99.90
37702;DHT22;23548;51.196;6.838;2023-12-07T12:47:49;4.70;99.90
37702;DHT22;23548;51.196;6.838;2023-12-07T12:50:41;4.70;99.90
37702;DHT22;23548;51.196;6.838;2023-12-07T12:53:09;4.80;99.90
37702;DHT22;23548;51.196;6.838;2023-12-07T12:55:40;4.70;99.90
37702;DHT22;23548;51.196;6.838;2023-12-07T12:58:07;4.80;99.90
37702;DHT22;23548;51.196;6.838;2023-12-07T13:00:34;4.80;99.90
37702;DHT22;23548;51.196;6.838;2023-12-07T13:03:03;4.90;99.90
37702;DHT22;23548;51.196;6.838;2023-12-07T13:05:29;5.00;99.90
37702;DHT22;23548;51.196;6.838;2023-12-07T13:07:55;5.00;99.90
37702;DHT22;23548;51.196;6.838;2023-12-07T13:10:22;5.00;99.90
37702;DHT22;23548;51.196;6.838;2023-12-07T13:12:47;5.10;99.90
37702;DHT22;23548;51.196;6.838;2023-12-07T13:15:13;5.00;99.90
37702;DHT22;23548;51.196;6.838;2023-12-07T13:17:40;5.00;99.90
37702;DHT22;23548;51.196;6.838;2023-12-07T13:20:07;5.10;99.90
37702;DHT22;23548;51.196;6.838;2023-12-07T13:22:37;5.00;99.90
37702;DHT22;23548;51.196;6.838;2023-12-07T13:25:03;5.10;99.90
37702;DHT22;23548;51.196;6.838;2023-12-07T13:27:29;5.00;99.90
37702;DHT22;23548;51.196;6.838;2023-12-07T13:29:55;5.00;99.90
37702;DHT22;23548;51.196;6.838;2023-12-07T13:32:20;5.00;99.90
37702;DHT22;23548;51.196;6.838;2023-12-07T13:34:46;5.00;99.90
37702;DHT22;23548;51.196;6.838;2023-12-07T13:37:12;5.10;99.90
37702;DHT22;23548;51.196;6.838;2023-12-07T13:39:38;5.10;99.90
37702;DHT22;23548;51.196;6.838;2023-12-07T13:42:04;5.20;99.90
37702;DHT22;23548;51.196;6.838;2023-12-07T13:44:29;5.20;99.90
37702;DHT22;23548;51.196;6.838;2023-12-07T13:46:58;5.10;99.90
37702;DHT22;23548;51.196;6.838;2023-12-07T13:49:23;5.10;99.90
37702;DHT22;23548;51.196;6.838;2023-12-07T13:51:49;5.00;99.90
37702;DHT22;23548;51.196;6.838;2023-12-07T13:54:15;4.90;99.90
37702;DHT22;23548;51.196;6.838;2023-12-07T13:56:40;4.80;99.90
37702;DHT22;23548;51.196;6.838;2023-12-07T13:59:07;4.90;99.90
37702;DHT22;23548;51.196;6.838;2023-12-07T14:01:36;4.80;99.90
37702;DHT22;23548;51.196;6.838;2023-12-07T14:04:02;4.90;99.90
37702;DHT22;23548;51.196;6.838;2023-12-07T14:06:28;4.80;99.90
37702;DHT22;23548;51.196;6.838;2023-12-07T14:08:54;4.90;99.90
37702;DHT22;23548;51.196;6.838;2023-12-07T14:11:20;4.80;99.90
37702;DHT22;23548;51.196;6.838;2023-12-07T14:13:45;4.70;99.90
37702;DHT22;23548;51.196;6.838;2023-12-07T14:16:18;4.70;99.90
37702;DHT22;23548;51.196;6.838;2023-12-07T14:18:43;4.70;99.90
37702;DHT22;23548;51.196;6.838;2023-12-07T14:21:09;4.70;99.90
37702;DHT22;23548;51.196;6.838;2023-12-07T14:23:35;4.70;99.90
37702;DHT22;23548;51.196;6.838;2023-12-07T14:26:01;4.70;99.90
37702;DHT22;23548;51.196;6.838;2023-12-07T14:28:28;4.70;99.90
37702;DHT22;23548;51.196;6.838;2023-12-07T14:30:56;4.70;99.90
37702;DHT22;23548;51.196;6.838;2023-12-07T14:33:24;4.70;99.90
37702;DHT22;23548;51.196;6.838;2023-12-07T14:35:50;4.60;99.90
37702;DHT22;23548;51.196;6.838;2023-12-07T14:38:16;4.60;99.90
37702;DHT22;23548;51.196;6.838;2023-12-07T14:40:43;4.50;99.90
37702;DHT22;23548;51.196;6.838;2023-12-07T14:43:09;4.40;99.90
37702;DHT22;23548;51.196;6.838;2023-12-07T14:45:34;4.30;99.90
37702;DHT22;23548;51.196;6.838;2023-12-07T14:48:00;4.20;99.90
37702;DHT22;23548;51.196;6.838;2023-12-07T14:50:26;4.20;99.90
37702;DHT22;23548;51.196;6.838;2023-12-07T14:52:51;4.20;99.90
37702;DHT22;23548;51.196;6.838;2023-12-07T14:55:18;4.10;99.90
37702;DHT22;23548;51.196;6.838;2023-12-07T14:57:44;4.00;99.90
37702;DHT22;23548;51.196;6.838;2023-12-07T15:00:11;4.00;99.90
37702;DHT22;23548;51.196;6.838;2023-12-07T15:02:37;3.90;99.90
37702;DHT22;23548;51.196;6.838;2023-12-07T15:05:03;3.90;99.90
37702;DHT22;23548;51.196;6.838;2023-12-07T15:07:30;3.90;99.90
37702;DHT22;23548;51.196;6.838;2023-12-07T15:09:55;3.90;99.90
37702;DHT22;23548;51.196;6.838;2023-12-07T15:12:23;3.80;99.90
37702;DHT22;23548;51.196;6.838;2023-12-07T15:14:50;3.70;99.90
37702;DHT22;23548;51.196;6.838;2023-12-07T15:17:16;3.60;99.90
37702;DHT22;23548;51.196;6.838;2023-12-07T15:19:42;3.60;99.90
37702;DHT22;23548;51.196;6.838;2023-12-07T15:22:08;3.50;99.90
37702;DHT22;23548;51.196;6.838;2023-12-07T15:24:35;3.50;99.90
37702;DHT22;23548;51.196;6.838;2023-12-07T15:27:01;3.40;99.90
37702;DHT22;23548;51.196;6.838;2023-12-07T15:29:27;3.40;99.90
37702;DHT22;23548;51.196;6.838;2023-12-07T15:31:52;3.40;99.90
37702;DHT22;23548;51.196;6.838;2023-12-07T15:34:19;3.30;99.90
37702;DHT22;23548;51.196;6.838;2023-12-07T15:36:44;3.30;99.90
37702;DHT22;23548;51.196;6.838;2023-12-07T15:39:10;3.30;99.90
37702;DHT22;23548;51.196;6.838;2023-12-07T15:41:37;3.20;99.90
37702;DHT22;23548;51.196;6.838;2023-12-07T15:44:03;3.20;99.90
37702;DHT22;23548;51.196;6.838;2023-12-07T15:46:29;3.20;99.90
37702;DHT22;23548;51.196;6.838;2023-12-07T15:48:55;3.20;99.90